createdAt,value
2023-09-02T00:00:14.574Z,12.30
2023-09-02T00:02:47.180Z,12.25
2023-09-02T00:05:19.921Z,13.07
2023-09-02T00:07:52.437Z,14.35
2023-09-02T00:10:24.941Z,13.07
2023-09-02T00:12:57.524Z,12.02
2023-09-02T00:15:30.360Z,13.88
2023-09-02T00:18:03.031Z,12.63
2023-09-02T00:20:35.702Z,12.75
2023-09-02T00:23:08.214Z,13.20
2023-09-02T00:25:40.659Z,13.05
2023-09-02T00:28:13.246Z,11.35
2023-09-02T00:30:45.708Z,13.18
2023-09-02T00:33:18.313Z,13.85
2023-09-02T00:35:51.089Z,12.75
2023-09-02T00:38:23.924Z,10.05
2023-09-02T00:41:01.834Z,11.90
2023-09-02T00:43:35.064Z,10.90
2023-09-02T00:46:09.656Z,10.73
2023-09-02T00:48:42.797Z,10.18
2023-09-02T00:51:15.345Z,11.32
2023-09-02T00:53:47.766Z,11.52
2023-09-02T00:56:20.809Z,14.68
2023-09-02T00:58:56.632Z,11.20
2023-09-02T01:01:32.616Z,10.45
2023-09-02T01:04:05.601Z,16.23
2023-09-02T01:06:39.520Z,14.43
2023-09-02T01:09:12.327Z,13.38
2023-09-02T01:11:44.850Z,11.95
2023-09-02T01:14:17.657Z,11.43
2023-09-02T01:16:51.083Z,11.32
2023-09-02T01:19:23.599Z,12.60
2023-09-02T01:22:11.971Z,18.35
2023-09-02T01:27:53.356Z,12.13
2023-09-02T01:30:30.167Z,13.02
2023-09-02T01:33:07.241Z,14.85
2023-09-02T01:35:41.040Z,11.43
2023-09-02T01:38:15.410Z,13.18
2023-09-02T01:40:51.572Z,12.57
2023-09-02T01:43:25.889Z,14.52
2023-09-02T01:45:59.445Z,14.27
2023-09-02T01:48:32.273Z,12.57
2023-09-02T01:51:05.570Z,10.98
2023-09-02T01:53:38.227Z,13.45
2023-09-02T01:56:11.505Z,12.02
2023-09-02T01:58:44.049Z,12.07
2023-09-02T02:01:17.129Z,11.73
2023-09-02T02:04:16.482Z,10.68
2023-09-02T02:06:53.870Z,10.75
2023-09-02T02:09:33.634Z,11.23
2023-09-02T02:12:08.349Z,17.15
2023-09-02T02:14:41.065Z,13.15
2023-09-02T02:17:14.406Z,10.60
2023-09-02T02:19:46.979Z,11.65
2023-09-02T02:22:20.223Z,11.52
2023-09-02T02:24:52.709Z,11.25
2023-09-02T02:27:25.219Z,12.20
2023-09-02T02:29:58.899Z,10.80
2023-09-02T02:32:31.481Z,10.93
2023-09-02T02:35:04.409Z,9.20
2023-09-02T02:37:36.948Z,13.50
2023-09-02T02:40:10.020Z,9.95
2023-09-02T02:42:42.585Z,8.90
2023-09-02T02:45:15.200Z,9.52
2023-09-02T02:47:47.736Z,10.77
2023-09-02T02:50:20.214Z,7.68
2023-09-02T02:52:52.819Z,9.90
2023-09-02T02:55:25.324Z,6.63
2023-09-02T02:57:58.004Z,9.00
2023-09-02T03:00:33.501Z,11.80
2023-09-02T03:05:43.745Z,8.82
2023-09-02T03:08:16.206Z,6.45
2023-09-02T03:10:59.840Z,8.18
2023-09-02T03:13:35.085Z,8.65
2023-09-02T03:16:07.858Z,8.88
2023-09-02T03:18:41.979Z,8.73
2023-09-02T03:21:14.475Z,7.78
2023-09-02T03:23:47.535Z,12.40
2023-09-02T03:26:21.261Z,7.85
2023-09-02T03:28:54.756Z,10.23
2023-09-02T03:31:27.500Z,6.68
2023-09-02T03:34:00.131Z,6.45
2023-09-02T03:36:32.705Z,7.22
2023-09-02T03:39:05.973Z,6.72
2023-09-02T03:41:39.166Z,6.53
2023-09-02T03:44:11.801Z,7.38
2023-09-02T03:46:44.427Z,7.20
2023-09-02T03:49:16.980Z,7.28
2023-09-02T03:51:49.453Z,11.13
2023-09-02T03:54:22.000Z,6.05
2023-09-02T03:56:54.492Z,5.22
2023-09-02T03:59:27.016Z,5.38
2023-09-02T04:01:59.523Z,8.60
2023-09-02T04:04:32.067Z,6.93
2023-09-02T04:07:04.545Z,7.75
2023-09-02T04:09:37.095Z,5.53
2023-09-02T04:12:09.563Z,7.60
2023-09-02T04:14:42.027Z,10.70
2023-09-02T04:17:14.550Z,8.48
2023-09-02T04:19:47.082Z,6.05
2023-09-02T04:22:19.610Z,4.80
2023-09-02T04:24:52.195Z,5.28
2023-09-02T04:27:24.664Z,7.88
2023-09-02T04:29:57.111Z,7.95
2023-09-02T04:32:29.719Z,5.85
2023-09-02T04:35:03.541Z,5.25
2023-09-02T04:37:36.093Z,5.40
2023-09-02T04:40:10.602Z,7.43
2023-09-02T04:42:43.106Z,10.60
2023-09-02T04:45:15.686Z,5.45
2023-09-02T04:47:48.222Z,6.30
2023-09-02T04:50:21.642Z,6.07
2023-09-02T04:52:54.431Z,8.10
2023-09-02T04:55:27.664Z,6.18
2023-09-02T04:58:00.608Z,4.75
2023-09-02T05:00:34.792Z,4.93
2023-09-02T05:03:09.615Z,4.80
2023-09-02T05:05:42.456Z,7.35
2023-09-02T05:08:15.018Z,10.70
2023-09-02T05:10:47.581Z,6.43
2023-09-02T05:13:20.464Z,4.25
2023-09-02T05:15:53.294Z,6.10
2023-09-02T05:18:25.840Z,5.47
2023-09-02T05:20:58.495Z,5.75
2023-09-02T05:23:31.105Z,7.55
2023-09-02T05:26:03.864Z,9.77
2023-09-02T05:28:36.513Z,4.85
2023-09-02T05:31:09.455Z,6.72
2023-09-02T05:33:41.960Z,7.30
2023-09-02T05:36:14.575Z,4.70
2023-09-02T05:38:47.294Z,9.68
2023-09-02T05:41:19.996Z,5.13
2023-09-02T05:43:52.566Z,6.93
2023-09-02T05:46:25.301Z,4.88
2023-09-02T05:48:57.886Z,5.07
2023-09-02T05:51:30.830Z,7.10
2023-09-02T05:54:03.958Z,8.90
2023-09-02T05:56:37.672Z,6.45
2023-09-02T05:59:10.342Z,6.72
2023-09-02T06:01:44.402Z,6.93
2023-09-02T06:04:17.213Z,5.90
2023-09-02T06:06:49.654Z,7.32
2023-09-02T06:09:22.229Z,4.95
2023-09-02T06:11:54.979Z,9.55
2023-09-02T06:14:27.545Z,7.60
2023-09-02T06:17:00.098Z,8.48
2023-09-02T06:19:32.662Z,5.45
2023-09-02T06:22:05.291Z,9.30
2023-09-02T06:24:37.918Z,6.60
2023-09-02T06:27:10.465Z,6.20
2023-09-02T06:29:45.968Z,6.47
2023-09-02T06:32:18.469Z,7.38
2023-09-02T06:34:51.380Z,7.43
2023-09-02T06:37:23.874Z,9.23
2023-09-02T06:39:56.461Z,8.00
2023-09-02T06:42:29.053Z,5.57
2023-09-02T06:45:01.635Z,7.50
2023-09-02T06:47:34.245Z,7.65
2023-09-02T06:50:07.528Z,7.07
2023-09-02T06:52:40.073Z,8.23
2023-09-02T06:55:12.552Z,6.85
2023-09-02T06:57:45.641Z,6.55
2023-09-02T07:00:18.168Z,7.50
2023-09-02T07:02:50.902Z,8.32
2023-09-02T07:05:23.378Z,7.40
2023-09-02T07:07:56.012Z,7.15
2023-09-02T07:10:28.490Z,10.65
2023-09-02T07:13:00.974Z,8.75
2023-09-02T07:15:33.653Z,6.78
2023-09-02T07:18:06.313Z,7.75
2023-09-02T07:20:38.987Z,9.00
2023-09-02T07:23:11.442Z,10.07
2023-09-02T07:25:43.953Z,8.40
2023-09-02T07:28:16.404Z,8.95
2023-09-02T07:30:49.029Z,8.00
2023-09-02T07:33:21.769Z,12.25
2023-09-02T07:35:54.646Z,7.80
2023-09-02T07:38:27.730Z,7.32
2023-09-02T07:41:00.242Z,7.53
2023-09-02T07:43:33.259Z,13.43
2023-09-02T07:46:06.074Z,12.00
2023-09-02T07:48:38.670Z,9.73
2023-09-02T07:51:11.087Z,10.10
2023-09-02T07:53:43.609Z,10.70
2023-09-02T07:56:16.728Z,10.50
2023-09-02T07:58:50.229Z,8.30
2023-09-02T08:01:22.896Z,10.57
2023-09-02T08:03:55.369Z,8.80
2023-09-02T08:06:27.841Z,8.85
2023-09-02T08:09:01.377Z,7.55
2023-09-02T08:11:33.893Z,8.73
2023-09-02T08:14:06.406Z,8.75
2023-09-02T08:16:38.820Z,7.93
2023-09-02T08:19:11.320Z,10.73
2023-09-02T08:21:43.793Z,9.90
2023-09-02T08:24:16.328Z,10.02
2023-09-02T08:26:48.795Z,9.95
2023-09-02T08:29:21.293Z,10.93
2023-09-02T08:31:54.819Z,9.45
2023-09-02T08:34:27.517Z,14.20
2023-09-02T08:37:00.059Z,9.27
2023-09-02T08:39:32.641Z,11.65
2023-09-02T08:42:06.179Z,15.05
2023-09-02T08:44:39.692Z,10.80
2023-09-02T08:47:12.566Z,16.13
2023-09-02T08:49:45.491Z,12.73
2023-09-02T08:52:18.698Z,11.23
2023-09-02T08:54:52.521Z,10.82
2023-09-02T08:57:25.113Z,12.93
2023-09-02T08:59:57.832Z,12.05
2023-09-02T09:02:30.638Z,11.02
2023-09-02T09:05:04.610Z,12.43
2023-09-02T09:07:41.717Z,9.18
2023-09-02T09:10:17.134Z,11.32
2023-09-02T09:12:52.270Z,15.80
2023-09-02T09:15:25.506Z,11.35
2023-09-02T09:17:58.415Z,14.32
2023-09-02T09:20:32.442Z,14.50
2023-09-02T09:23:10.935Z,13.23
2023-09-02T09:25:43.674Z,21.58
2023-09-02T09:28:16.691Z,13.00
2023-09-02T09:30:49.158Z,16.45
2023-09-02T09:33:22.056Z,13.77
2023-09-02T09:36:11.144Z,17.30
2023-09-02T09:38:43.903Z,19.20
2023-09-02T09:41:16.453Z,17.23
2023-09-02T09:44:11.458Z,15.68
2023-09-02T09:46:43.902Z,12.48
2023-09-02T09:49:23.564Z,12.13
2023-09-02T09:52:10.344Z,13.68
2023-09-02T09:54:46.827Z,16.13
2023-09-02T09:57:38.768Z,13.45
2023-09-02T10:00:16.133Z,14.80
2023-09-02T10:02:56.486Z,14.00
2023-09-02T10:05:34.165Z,12.90
2023-09-02T10:08:08.380Z,14.40
2023-09-02T10:10:41.471Z,13.20
2023-09-02T10:13:14.152Z,13.30
2023-09-02T10:15:48.388Z,15.98
2023-09-02T10:18:24.498Z,14.20
2023-09-02T10:20:57.276Z,11.27
2023-09-02T10:23:30.138Z,14.20
2023-09-02T10:26:15.810Z,14.43
2023-09-02T10:28:50.683Z,16.30
2023-09-02T10:31:26.044Z,15.70
2023-09-02T10:34:04.398Z,15.57
2023-09-02T10:36:40.025Z,13.70
2023-09-02T10:39:22.453Z,12.82
2023-09-02T10:41:56.861Z,15.55
2023-09-02T10:44:30.592Z,14.63
2023-09-02T10:47:04.160Z,13.70
2023-09-02T10:49:37.544Z,11.82
2023-09-02T10:52:13.776Z,14.27
2023-09-02T10:55:03.106Z,18.30
2023-09-02T10:57:57.186Z,14.80
2023-09-02T11:03:02.714Z,13.52
2023-09-02T11:06:07.708Z,18.38
2023-09-02T11:08:51.025Z,17.48
2023-09-02T11:11:23.822Z,18.00
2023-09-02T11:14:08.956Z,17.25
2023-09-02T11:16:44.148Z,18.52
2023-09-02T11:19:16.670Z,17.88
2023-09-02T11:21:49.353Z,20.15
2023-09-02T11:24:24.088Z,16.45
2023-09-02T11:26:58.770Z,19.02
2023-09-02T11:29:31.832Z,17.73
2023-09-02T11:32:05.914Z,18.15
2023-09-02T11:34:38.554Z,20.45
2023-09-02T11:37:12.408Z,18.02
2023-09-02T11:39:46.236Z,19.77
2023-09-02T11:42:18.789Z,19.10
2023-09-02T11:44:52.491Z,20.92
2023-09-02T11:47:25.106Z,18.73
2023-09-02T11:49:57.665Z,16.92
2023-09-02T11:52:30.223Z,16.48
2023-09-02T11:55:14.872Z,18.10
2023-09-02T11:57:47.770Z,21.00
2023-09-02T12:00:21.931Z,17.50
2023-09-02T12:02:58.054Z,17.23
2023-09-02T12:05:30.851Z,16.60
2023-09-02T12:08:03.666Z,16.80
2023-09-02T12:10:36.138Z,17.70
2023-09-02T12:13:10.213Z,18.58
2023-09-02T12:15:43.216Z,18.52
2023-09-02T12:18:16.233Z,16.48
2023-09-02T12:20:49.967Z,17.55
2023-09-02T12:23:22.751Z,23.05
2023-09-02T12:26:04.795Z,18.13
2023-09-02T12:28:37.689Z,17.25
2023-09-02T12:31:10.270Z,18.73
2023-09-02T12:33:42.771Z,19.00
2023-09-02T12:36:15.391Z,18.73
2023-09-02T12:38:49.317Z,17.75
2023-09-02T12:41:21.877Z,17.58
2023-09-02T12:43:54.493Z,16.85
2023-09-02T12:46:27.051Z,15.57
2023-09-02T12:49:00.265Z,16.92
2023-09-02T12:51:38.282Z,17.55
2023-09-02T12:54:12.458Z,16.50
2023-09-02T12:56:44.894Z,15.48
2023-09-02T12:59:17.369Z,15.95
2023-09-02T13:01:51.945Z,15.65
2023-09-02T13:04:25.078Z,16.40
2023-09-02T13:06:57.567Z,15.27
2023-09-02T13:09:31.902Z,16.55
2023-09-02T13:12:04.745Z,15.77
2023-09-02T13:14:39.393Z,16.23
2023-09-02T13:17:12.565Z,17.67
2023-09-02T13:19:48.709Z,14.38
2023-09-02T13:22:21.300Z,15.55
2023-09-02T13:24:53.790Z,19.77
2023-09-02T13:27:29.421Z,18.17
2023-09-02T13:30:01.920Z,18.52
2023-09-02T13:32:36.266Z,18.80
2023-09-02T13:35:24.905Z,17.83
2023-09-02T13:37:59.660Z,17.45
2023-09-02T13:40:38.375Z,18.90
2023-09-02T13:43:23.583Z,19.00
2023-09-02T13:45:56.210Z,17.42
2023-09-02T13:48:29.869Z,17.38
2023-09-02T13:51:05.493Z,17.30
2023-09-02T13:53:38.424Z,16.73
2023-09-02T13:56:11.301Z,17.52
2023-09-02T13:58:44.074Z,18.73
2023-09-02T14:01:16.561Z,17.30
2023-09-02T14:03:50.053Z,16.27
2023-09-02T14:06:23.035Z,16.17
2023-09-02T14:08:56.409Z,17.45
2023-09-02T14:11:32.314Z,21.08
2023-09-02T14:14:05.533Z,19.67
2023-09-02T14:16:38.054Z,18.05
2023-09-02T14:19:10.621Z,16.90
2023-09-02T14:21:43.563Z,17.20
2023-09-02T14:24:16.074Z,13.20
2023-09-02T14:27:07.404Z,14.48
2023-09-02T14:29:40.345Z,13.65
2023-09-02T14:32:12.937Z,17.60
2023-09-02T14:34:47.773Z,17.20
2023-09-02T14:37:20.669Z,16.67
2023-09-02T14:39:53.154Z,14.38
2023-09-02T14:42:25.962Z,18.40
2023-09-02T14:44:58.913Z,15.88
2023-09-02T14:47:32.720Z,17.83
2023-09-02T14:50:05.940Z,18.25
2023-09-02T14:52:40.231Z,16.45
2023-09-02T14:55:15.885Z,18.98
2023-09-02T14:57:52.506Z,17.67
2023-09-02T15:00:25.699Z,18.98
2023-09-02T15:03:02.054Z,15.65
2023-09-02T15:05:35.419Z,16.20
2023-09-02T15:08:07.906Z,16.05
2023-09-02T15:10:40.447Z,18.23
2023-09-02T15:13:14.537Z,14.82
2023-09-02T15:15:47.296Z,14.43
2023-09-02T15:18:22.741Z,15.13
2023-09-02T15:20:56.973Z,14.35
2023-09-02T15:23:33.136Z,15.25
2023-09-02T15:26:06.233Z,15.30
2023-09-02T15:28:38.702Z,16.20
2023-09-02T15:31:13.954Z,13.98
2023-09-02T15:33:47.837Z,13.57
2023-09-02T15:36:22.545Z,15.98
2023-09-02T15:38:55.053Z,16.02
2023-09-02T15:41:27.552Z,14.07
2023-09-02T15:44:00.090Z,19.45
2023-09-02T15:46:32.629Z,14.32
2023-09-02T15:49:05.193Z,11.77
2023-09-02T15:51:37.916Z,11.85
2023-09-02T15:54:10.405Z,13.05
2023-09-02T15:56:42.903Z,14.65
2023-09-02T15:59:15.997Z,12.38
2023-09-02T16:01:48.606Z,16.15
2023-09-02T16:04:21.591Z,20.45
2023-09-02T16:06:54.098Z,12.57
2023-09-02T16:09:26.814Z,14.88
2023-09-02T16:11:59.328Z,14.82
2023-09-02T16:14:31.855Z,16.48
2023-09-02T16:17:21.451Z,15.45
2023-09-02T16:19:53.885Z,14.00
2023-09-02T16:22:26.448Z,12.93
2023-09-02T16:24:58.899Z,11.85
2023-09-02T16:27:31.396Z,12.15
2023-09-02T16:30:09.660Z,13.15
2023-09-02T16:32:42.532Z,11.30
2023-09-02T16:35:20.781Z,11.27
2023-09-02T16:37:53.310Z,10.10
2023-09-02T16:40:29.409Z,13.57
2023-09-02T16:43:02.213Z,12.50
2023-09-02T16:45:34.876Z,13.75
2023-09-02T16:48:10.436Z,13.68
2023-09-02T16:50:46.583Z,12.32
2023-09-02T16:53:19.762Z,14.25
2023-09-02T16:56:02.989Z,16.08
2023-09-02T16:58:36.750Z,16.27
2023-09-02T17:01:13.867Z,13.70
2023-09-02T17:03:52.960Z,16.40
2023-09-02T17:06:29.300Z,14.23
2023-09-02T17:09:03.437Z,15.82
2023-09-02T17:11:35.971Z,16.00
2023-09-02T17:14:09.467Z,15.68
2023-09-02T17:16:48.680Z,15.82
2023-09-02T17:19:21.387Z,17.23
2023-09-02T17:21:58.868Z,19.77
2023-09-02T17:24:31.692Z,21.05
2023-09-02T17:27:16.375Z,18.73
2023-09-02T17:29:52.635Z,23.75
2023-09-02T17:32:25.149Z,25.00
2023-09-02T17:34:57.833Z,17.35
2023-09-02T17:37:34.326Z,21.30
2023-09-02T17:40:07.327Z,18.23
2023-09-02T17:42:43.811Z,18.73
2023-09-02T17:45:16.372Z,20.67
2023-09-02T17:47:49.837Z,21.00
2023-09-02T17:50:22.955Z,18.63
2023-09-02T17:52:55.522Z,19.70
2023-09-02T17:55:28.042Z,18.33
2023-09-02T17:58:06.147Z,20.60
2023-09-02T18:00:38.632Z,19.27
2023-09-02T18:03:11.246Z,19.20
2023-09-02T18:05:43.834Z,20.48
2023-09-02T18:08:16.296Z,20.80
2023-09-02T18:10:48.744Z,19.95
2023-09-02T18:13:21.380Z,20.77
2023-09-02T18:15:53.858Z,21.30
2023-09-02T18:18:26.424Z,22.67
2023-09-02T18:20:59.056Z,25.10
2023-09-02T18:23:31.660Z,21.17
2023-09-02T18:26:04.231Z,20.98
2023-09-02T18:28:36.812Z,20.55
2023-09-02T18:31:14.581Z,20.30
2023-09-02T18:33:50.458Z,23.50
2023-09-02T18:36:26.305Z,20.55
2023-09-02T18:38:58.737Z,20.85
2023-09-02T18:41:31.269Z,20.58
2023-09-02T18:44:03.799Z,23.88
2023-09-02T18:46:36.315Z,22.80
2023-09-02T18:49:08.901Z,19.90
2023-09-02T18:51:41.375Z,20.75
2023-09-02T18:54:14.014Z,18.77
2023-09-02T18:56:46.426Z,19.52
2023-09-02T18:59:19.226Z,23.15
2023-09-02T19:01:51.860Z,19.30
2023-09-02T19:04:24.369Z,20.70
2023-09-02T19:06:56.890Z,25.02
2023-09-02T19:09:29.792Z,21.40
2023-09-02T19:12:02.308Z,21.02
2023-09-02T19:14:35.820Z,19.27
2023-09-02T19:17:08.464Z,20.33
2023-09-02T19:19:41.008Z,20.98
2023-09-02T19:22:13.547Z,19.30
2023-09-02T19:24:46.132Z,24.25
2023-09-02T19:27:18.732Z,22.88
2023-09-02T19:29:51.451Z,22.55
2023-09-02T19:32:24.018Z,22.35
2023-09-02T19:34:56.538Z,26.42
2023-09-02T19:37:29.098Z,29.30
2023-09-02T19:40:01.602Z,27.48
2023-09-02T19:42:34.055Z,25.40
2023-09-02T19:45:07.237Z,26.90
2023-09-02T19:47:39.795Z,30.67
2023-09-02T19:50:12.539Z,23.40
2023-09-02T19:52:45.152Z,22.55
2023-09-02T19:55:17.784Z,24.33
2023-09-02T19:57:50.480Z,24.77
2023-09-02T20:00:23.061Z,24.23
2023-09-02T20:02:55.554Z,23.25
2023-09-02T20:05:28.185Z,23.60
2023-09-02T20:08:00.668Z,28.42
2023-09-02T20:10:35.976Z,29.75
2023-09-02T20:13:08.789Z,31.50
2023-09-02T20:15:41.362Z,28.17
2023-09-02T20:18:13.958Z,27.35
2023-09-02T20:20:51.488Z,27.88
2023-09-02T20:23:24.146Z,25.77
2023-09-02T20:25:56.716Z,22.30
2023-09-02T20:28:29.310Z,26.80
2023-09-02T20:31:01.923Z,23.55
2023-09-02T20:33:34.439Z,24.13
2023-09-02T20:36:13.613Z,21.50
2023-09-02T20:38:46.512Z,23.58
2023-09-02T20:41:21.310Z,23.10
2023-09-02T20:43:55.000Z,27.40
2023-09-02T20:46:27.533Z,19.30
2023-09-02T20:49:00.366Z,22.67
2023-09-02T20:51:33.740Z,22.38
2023-09-02T20:54:07.448Z,21.58
2023-09-02T20:56:40.061Z,23.33
2023-09-02T20:59:12.590Z,21.42
2023-09-02T21:01:45.695Z,21.42
2023-09-02T21:04:18.435Z,27.40
2023-09-02T21:06:50.983Z,28.15
2023-09-02T21:09:23.619Z,25.45
2023-09-02T21:11:56.336Z,26.25
2023-09-02T21:14:28.801Z,24.27
2023-09-02T21:17:01.475Z,25.08
2023-09-02T21:19:38.274Z,28.13
2023-09-02T21:22:10.846Z,25.08
2023-09-02T21:24:43.322Z,26.48
2023-09-02T21:27:15.831Z,26.38
2023-09-02T21:29:48.746Z,22.48
2023-09-02T21:32:21.307Z,25.83
2023-09-02T21:34:53.991Z,23.30
2023-09-02T21:37:26.646Z,21.23
2023-09-02T21:39:59.390Z,25.67
2023-09-02T21:42:32.756Z,24.70
2023-09-02T21:45:05.926Z,27.23
2023-09-02T21:47:38.543Z,22.75
2023-09-02T21:50:11.132Z,23.00
2023-09-02T21:52:43.600Z,36.10
2023-09-02T21:55:16.322Z,25.63
2023-09-02T21:57:48.772Z,24.92
2023-09-02T22:00:21.211Z,25.15
2023-09-02T22:02:54.993Z,25.48
2023-09-02T22:05:27.716Z,24.90
2023-09-02T22:08:00.251Z,24.05
2023-09-02T22:10:33.247Z,26.23
2023-09-02T22:13:05.848Z,28.95
2023-09-02T22:15:38.333Z,25.73
2023-09-02T22:18:10.764Z,22.20
2023-09-02T22:20:43.294Z,26.48
2023-09-02T22:23:15.905Z,26.23
2023-09-02T22:25:49.395Z,21.63
2023-09-02T22:28:22.005Z,25.88
2023-09-02T22:30:55.484Z,21.00
2023-09-02T22:33:29.447Z,23.60
2023-09-02T22:36:02.704Z,23.05
2023-09-02T22:38:55.724Z,25.15
2023-09-02T22:41:28.307Z,25.00
2023-09-02T22:44:00.855Z,20.08
2023-09-02T22:46:33.607Z,23.77
2023-09-02T22:49:28.722Z,23.15
2023-09-02T22:52:01.263Z,21.08
2023-09-02T22:54:34.311Z,24.33
2023-09-02T22:57:06.846Z,21.40
2023-09-02T22:59:39.390Z,22.83
2023-09-02T23:02:11.953Z,19.35
2023-09-02T23:04:47.626Z,24.67
2023-09-02T23:07:20.070Z,21.85
2023-09-02T23:09:52.694Z,23.08
2023-09-02T23:12:25.239Z,19.63
2023-09-02T23:14:57.703Z,18.13
2023-09-02T23:17:30.267Z,20.30
2023-09-02T23:20:04.337Z,22.00
2023-09-02T23:22:37.160Z,20.40
2023-09-02T23:25:09.919Z,21.85
2023-09-02T23:27:49.868Z,23.70
2023-09-02T23:30:22.731Z,18.92
2023-09-02T23:32:55.361Z,15.60
2023-09-02T23:35:27.991Z,17.77
2023-09-02T23:38:00.473Z,21.05
2023-09-02T23:40:33.278Z,20.95
2023-09-02T23:43:05.794Z,16.30
2023-09-02T23:45:38.648Z,17.50
2023-09-02T23:48:11.156Z,19.45
2023-09-02T23:50:46.920Z,19.73
2023-09-02T23:53:19.637Z,19.30
2023-09-02T23:55:52.180Z,26.27
2023-09-02T23:58:24.752Z,20.13
